Time;durP1;ratioP1;P1;durP2;ratioP2;P2;SDS_P1;SDS_P2;PMS_P1;PMS_P2;Temp;Humidity;BMP_temperature;BMP_pressure;BME280_temperature;BME280_humidity;BME280_pressure;Samples;Min_cycle;Max_cycle;Signal;HPM_P1;HPM_P2
2023/10/11 00:00:38;;;;;;;43.47;18.35;;;17.30;99.90;;;;;;4896026;29;20204;-70
2023/10/11 00:03:14;;;;;;;43.42;18.88;;;17.30;99.90;;;;;;4895611;29;20204;-70
2023/10/11 00:05:41;;;;;;;48.40;18.67;;;17.30;99.90;;;;;;4896304;29;20259;-69
2023/10/11 00:08:08;;;;;;;44.08;19.27;;;17.30;99.90;;;;;;4896189;29;20229;-70
2023/10/11 00:10:42;;;;;;;56.88;20.10;;;17.30;99.90;;;;;;4895966;29;20196;-72
2023/10/11 00:13:10;;;;;;;41.70;19.30;;;17.30;99.90;;;;;;4896580;29;20187;-72
2023/10/11 00:15:36;;;;;;;46.83;19.27;;;17.30;99.90;;;;;;4896323;29;20193;-72
2023/10/11 00:18:02;;;;;;;46.92;19.73;;;17.30;99.90;;;;;;4892846;29;20571;-73
2023/10/11 00:20:35;;;;;;;43.15;19.20;;;17.30;99.90;;;;;;4894484;29;20232;-70
2023/10/11 00:23:01;;;;;;;46.72;20.40;;;17.30;99.90;;;;;;4895871;29;20248;-71
2023/10/11 00:25:27;;;;;;;52.80;20.35;;;17.30;99.90;;;;;;4895855;29;20580;-71
2023/10/11 00:27:58;;;;;;;57.90;20.77;;;17.30;99.90;;;;;;4895446;29;20594;-73
2023/10/11 00:30:29;;;;;;;47.00;20.38;;;17.30;99.90;;;;;;4888335;29;20284;-72
2023/10/11 00:32:56;;;;;;;45.72;19.90;;;17.30;99.90;;;;;;4900046;29;20277;-70
2023/10/11 00:35:25;;;;;;;50.30;20.40;;;17.30;99.90;;;;;;4899936;29;20196;-71
2023/10/11 00:37:52;;;;;;;48.03;20.63;;;17.40;99.90;;;;;;4899906;29;20524;-70
2023/10/11 00:40:26;;;;;;;53.42;20.08;;;17.40;99.90;;;;;;4898816;29;20608;-70
2023/10/11 00:42:52;;;;;;;51.63;20.90;;;17.40;99.90;;;;;;4898822;29;20212;-70
2023/10/11 00:45:22;;;;;;;50.90;20.35;;;17.40;99.90;;;;;;4891972;29;20222;-70
2023/10/11 00:47:55;;;;;;;60.42;21.60;;;17.40;99.90;;;;;;4897401;29;20547;-69
2023/10/11 00:50:21;;;;;;;61.13;21.75;;;17.40;99.90;;;;;;4893018;29;20235;-71
2023/10/11 00:52:48;;;;;;;54.30;21.15;;;17.40;99.90;;;;;;4899843;29;20193;-70
2023/10/11 00:55:21;;;;;;;53.67;22.13;;;17.40;99.90;;;;;;4897665;29;20196;-72
2023/10/11 00:57:49;;;;;;;62.90;22.00;;;17.40;99.90;;;;;;4898543;29;20196;-70
2023/10/11 01:00:17;;;;;;;46.58;21.35;;;17.40;99.90;;;;;;4899411;29;20279;-70
2023/10/11 01:02:46;;;;;;;50.80;21.23;;;17.40;99.90;;;;;;4896749;29;20185;-70
2023/10/11 01:05:12;;;;;;;50.60;21.08;;;17.40;99.90;;;;;;4898472;29;20223;-69
2023/10/11 01:07:41;;;;;;;54.15;21.48;;;17.40;99.90;;;;;;4899475;29;20217;-71
2023/10/11 01:10:08;;;;;;;48.70;21.25;;;17.40;99.90;;;;;;4897773;29;20774;-70
2023/10/11 01:12:34;;;;;;;55.80;21.38;;;17.40;99.90;;;;;;4898450;29;20235;-70
2023/10/11 01:15:01;;;;;;;58.42;22.73;;;17.40;99.90;;;;;;4898490;29;20968;-71
2023/10/11 01:17:38;;;;;;;60.22;22.30;;;17.40;99.90;;;;;;4882350;29;20192;-70
2023/10/11 01:20:13;;;;;;;54.08;22.00;;;17.40;99.90;;;;;;4897969;29;20251;-71
2023/10/11 01:22:43;;;;;;;53.00;21.35;;;17.40;99.90;;;;;;4899038;29;20679;-70
2023/10/11 01:25:20;;;;;;;52.00;20.83;;;17.40;99.90;;;;;;4896509;29;20192;-71
2023/10/11 01:27:47;;;;;;;59.88;21.58;;;17.30;99.90;;;;;;4898247;29;20271;-72
2023/10/11 01:30:14;;;;;;;54.67;22.38;;;17.30;99.90;;;;;;4895641;29;20240;-71
2023/10/11 01:32:43;;;;;;;57.80;21.35;;;17.40;99.90;;;;;;4898542;29;20191;-69
2023/10/11 01:35:19;;;;;;;57.72;20.90;;;17.30;99.90;;;;;;4899228;29;20188;-71
2023/10/11 01:37:49;;;;;;;55.92;20.73;;;17.30;99.90;;;;;;4897393;29;20215;-71
2023/10/11 01:40:23;;;;;;;53.60;21.02;;;17.30;99.90;;;;;;4912056;29;20248;-71
2023/10/11 01:42:51;;;;;;;48.70;20.92;;;17.30;99.90;;;;;;4896909;29;20216;-70
2023/10/11 01:45:19;;;;;;;54.10;21.33;;;17.30;99.90;;;;;;4897568;29;20629;-71
2023/10/11 01:47:50;;;;;;;51.97;21.25;;;17.30;99.90;;;;;;4909383;29;20189;-71
2023/10/11 01:50:17;;;;;;;54.55;20.38;;;17.30;99.90;;;;;;4895934;29;20215;-70
2023/10/11 01:52:47;;;;;;;51.50;20.95;;;17.30;99.90;;;;;;4897020;29;20220;-70
2023/10/11 01:55:15;;;;;;;51.78;21.33;;;17.30;99.90;;;;;;4896772;29;20263;-71
2023/10/11 01:57:45;;;;;;;51.15;21.35;;;17.30;99.90;;;;;;4897778;29;20595;-70
2023/10/11 02:00:20;;;;;;;58.58;21.33;;;17.30;99.90;;;;;;4895907;29;20188;-70
2023/10/11 02:02:55;;;;;;;61.15;19.73;;;17.30;99.90;;;;;;4897783;29;20199;-70
2023/10/11 02:05:25;;;;;;;47.88;19.58;;;17.30;99.90;;;;;;4895631;29;20271;-71
2023/10/11 02:07:51;;;;;;;43.20;18.98;;;17.30;99.90;;;;;;4898479;29;20195;-71
2023/10/11 02:10:27;;;;;;;53.38;19.40;;;17.30;99.90;;;;;;4896122;29;20225;-72
2023/10/11 02:12:57;;;;;;;43.92;19.10;;;17.40;99.90;;;;;;4897832;29;20188;-70
2023/10/11 02:15:29;;;;;;;56.15;19.98;;;17.30;99.90;;;;;;4895612;29;20201;-70
2023/10/11 02:17:58;;;;;;;50.80;19.63;;;17.30;99.90;;;;;;4895879;29;20189;-70
2023/10/11 02:20:24;;;;;;;58.42;19.88;;;17.30;99.90;;;;;;4894982;29;20332;-71
2023/10/11 02:22:52;;;;;;;48.65;18.27;;;17.30;99.90;;;;;;4897156;29;20264;-70
2023/10/11 02:25:19;;;;;;;54.28;19.80;;;17.30;99.90;;;;;;4894853;29;20208;-72
2023/10/11 02:27:49;;;;;;;54.03;19.08;;;17.30;99.90;;;;;;4896332;29;20192;-70
2023/10/11 02:30:22;;;;;;;46.72;19.17;;;17.30;99.90;;;;;;4895580;29;20741;-71
2023/10/11 02:33:00;;;;;;;57.92;19.95;;;17.30;99.90;;;;;;4893233;29;20227;-71
2023/10/11 02:35:28;;;;;;;45.42;19.17;;;17.30;99.90;;;;;;4896871;29;20729;-71
2023/10/11 02:37:55;;;;;;;51.28;19.58;;;17.30;99.90;;;;;;4897106;29;20239;-71
2023/10/11 02:40:24;;;;;;;53.72;20.20;;;17.30;99.90;;;;;;4879603;29;20181;-72
2023/10/11 02:42:55;;;;;;;52.00;19.33;;;17.20;99.90;;;;;;4896672;29;20188;-69
2023/10/11 02:45:23;;;;;;;46.50;19.65;;;17.20;99.90;;;;;;4896405;29;20200;-71
2023/10/11 02:47:50;;;;;;;52.83;20.05;;;17.20;99.90;;;;;;4896528;29;20196;-72
2023/10/11 02:50:22;;;;;;;55.33;20.73;;;17.20;99.90;;;;;;4894677;29;20217;-71
2023/10/11 02:52:49;;;;;;;49.20;20.77;;;17.10;99.90;;;;;;4893540;29;20567;-71
2023/10/11 02:55:21;;;;;;;50.13;20.25;;;17.10;99.90;;;;;;4894716;29;20192;-70
2023/10/11 02:58:05;;;;;;;54.58;20.92;;;17.10;99.90;;;;;;4895824;29;20188;-70
2023/10/11 03:00:36;;;;;;;51.92;20.60;;;17.10;99.90;;;;;;4895844;29;20196;-70
2023/10/11 03:03:08;;;;;;;54.58;19.98;;;17.10;99.90;;;;;;4908249;29;20197;-69
2023/10/11 03:05:37;;;;;;;48.60;21.00;;;17.10;99.90;;;;;;4895229;29;20223;-71
2023/10/11 03:08:13;;;;;;;54.00;20.83;;;17.10;99.90;;;;;;4895320;29;20264;-71
2023/10/11 03:10:43;;;;;;;63.95;20.85;;;17.10;99.90;;;;;;4897088;29;20220;-69
2023/10/11 03:13:12;;;;;;;49.00;20.17;;;17.10;99.90;;;;;;4903448;29;20540;-70
2023/10/11 03:15:38;;;;;;;51.05;21.10;;;17.00;99.90;;;;;;4896704;29;20196;-71
2023/10/11 03:18:06;;;;;;;50.33;20.58;;;17.10;99.90;;;;;;4895804;29;20189;-71
2023/10/11 03:20:39;;;;;;;49.08;20.00;;;17.10;99.90;;;;;;4896013;29;20632;-70
2023/10/11 03:23:10;;;;;;;53.28;20.17;;;17.10;99.90;;;;;;4894761;29;20197;-72
2023/10/11 03:25:38;;;;;;;53.35;21.35;;;17.10;99.90;;;;;;4896442;29;20240;-71
2023/10/11 03:28:07;;;;;;;59.80;21.08;;;17.10;99.90;;;;;;4896554;29;20216;-72
2023/10/11 03:30:36;;;;;;;46.55;19.88;;;17.10;99.90;;;;;;4894454;29;20195;-71
2023/10/11 03:33:03;;;;;;;46.33;20.17;;;17.10;99.90;;;;;;4895037;29;20188;-70
2023/10/11 03:35:33;;;;;;;45.67;19.80;;;17.10;99.90;;;;;;4896569;29;20276;-70
2023/10/11 03:38:00;;;;;;;50.03;19.67;;;17.10;99.90;;;;;;4896084;29;20195;-69
2023/10/11 03:40:34;;;;;;;50.58;19.77;;;17.10;99.90;;;;;;4896637;29;20192;-71
2023/10/11 03:43:03;;;;;;;51.70;19.80;;;17.10;99.90;;;;;;4896882;29;20230;-71
2023/10/11 03:45:34;;;;;;;53.90;20.35;;;17.10;99.90;;;;;;4896250;29;20184;-70
2023/10/11 03:48:01;;;;;;;41.08;19.35;;;17.10;99.90;;;;;;4893047;29;20177;-70
2023/10/11 03:50:33;;;;;;;53.28;19.42;;;17.10;99.90;;;;;;4895371;29;20197;-70
2023/10/11 03:53:10;;;;;;;49.28;19.77;;;17.10;99.90;;;;;;4894994;29;20196;-72
2023/10/11 03:55:45;;;;;;;55.63;18.83;;;17.10;99.90;;;;;;4895246;29;20211;-70
2023/10/11 03:58:29;;;;;;;48.90;18.83;;;17.10;99.90;;;;;;4897110;29;20259;-71
2023/10/11 04:01:00;;;;;;;53.47;19.08;;;17.10;99.90;;;;;;4895037;29;20333;-69
2023/10/11 04:03:27;;;;;;;40.58;18.38;;;17.10;99.90;;;;;;4894017;29;20228;-70
2023/10/11 04:05:58;;;;;;;46.50;19.10;;;17.00;99.90;;;;;;4896104;29;20188;-70
2023/10/11 04:08:25;;;;;;;59.15;18.75;;;17.00;99.90;;;;;;4894830;29;20224;-68
2023/10/11 04:10:51;;;;;;;52.83;18.63;;;17.00;99.90;;;;;;4895984;29;20279;-69
2023/10/11 04:13:24;;;;;;;52.17;19.52;;;17.00;99.90;;;;;;4895654;29;20203;-70
2023/10/11 04:15:52;;;;;;;48.65;19.02;;;17.00;99.90;;;;;;4895912;29;20219;-69
2023/10/11 04:18:52;;;;;;;46.13;18.33;;;17.00;99.90;;;;;;4895961;29;20795;-69
2023/10/11 04:23:38;;;;;;;43.47;17.35;;;16.90;99.90;;;;;;4895258;29;20188;-70
2023/10/11 04:26:25;;;;;;;56.40;18.67;;;17.00;99.90;;;;;;4895192;29;20216;-70
2023/10/11 04:28:52;;;;;;;49.33;17.67;;;16.90;99.90;;;;;;4901087;29;20283;-70
2023/10/11 04:31:36;;;;;;;45.55;17.60;;;16.90;99.90;;;;;;4894074;29;20197;-69
2023/10/11 04:34:11;;;;;;;45.22;17.35;;;16.90;99.90;;;;;;4891218;29;20212;-72
2023/10/11 04:36:43;;;;;;;45.47;17.60;;;16.90;99.90;;;;;;4891004;29;20196;-71
2023/10/11 04:39:18;;;;;;;50.75;17.13;;;16.90;99.90;;;;;;4892731;29;20192;-73
2023/10/11 04:41:53;;;;;;;49.05;16.85;;;16.90;99.90;;;;;;4890858;29;20193;-71
2023/10/11 04:44:19;;;;;;;44.55;16.83;;;16.90;99.90;;;;;;4892649;29;20216;-70
2023/10/11 04:46:55;;;;;;;37.88;16.33;;;16.90;99.90;;;;;;4895789;29;20193;-70
2023/10/11 04:49:24;;;;;;;48.47;17.13;;;16.90;99.90;;;;;;4894809;29;20227;-71
2023/10/11 04:51:54;;;;;;;45.30;17.02;;;16.90;99.90;;;;;;4895586;29;20224;-70
2023/10/11 04:54:19;;;;;;;46.75;17.35;;;16.90;99.90;;;;;;4895496;29;20319;-73
2023/10/11 05:02:03;;;;;;;45.78;16.55;;;16.90;99.90;;;;;;4906084;29;20199;-70
2023/10/11 05:04:33;;;;;;;50.03;16.98;;;16.90;99.90;;;;;;4896368;29;20672;-68
2023/10/11 05:07:07;;;;;;;44.20;17.27;;;16.90;99.90;;;;;;4894173;29;20200;-73
2023/10/11 05:09:41;;;;;;;40.63;17.08;;;16.90;99.90;;;;;;4896261;29;20219;-71
2023/10/11 05:12:10;;;;;;;44.05;16.33;;;16.90;99.90;;;;;;4910373;29;20181;-71
2023/10/11 05:17:32;;;;;;;44.28;15.43;;;16.90;99.90;;;;;;4889108;29;20200;-73
2023/10/11 05:22:49;;;;;;;51.00;16.25;;;17.00;99.90;;;;;;4898915;29;20623;-70
2023/10/11 05:27:56;;;;;;;35.88;15.38;;;17.00;99.90;;;;;;4890590;29;20188;-71
2023/10/11 05:33:15;;;;;;;39.90;15.82;;;17.00;99.90;;;;;;4896685;29;20394;-71
2023/10/11 05:52:15;;;;;;;45.80;15.50;;;17.10;99.90;;;;;;4897116;29;20197;-70
2023/10/11 05:54:42;;;;;;;44.33;17.13;;;17.10;99.90;;;;;;4895447;29;20206;-70
2023/10/11 05:57:08;;;;;;;42.78;16.00;;;17.20;99.90;;;;;;4898056;29;20276;-72
2023/10/11 05:59:35;;;;;;;53.95;17.20;;;17.20;99.90;;;;;;4891514;29;20613;-72
2023/10/11 06:02:13;;;;;;;39.47;15.45;;;17.20;99.90;;;;;;4895995;29;20223;-74
2023/10/11 06:04:40;;;;;;;45.38;16.77;;;17.30;99.90;;;;;;4897692;29;20220;-74
2023/10/11 06:07:07;;;;;;;51.28;16.15;;;17.30;99.90;;;;;;4896728;29;20204;-74
2023/10/11 06:09:40;;;;;;;44.83;16.05;;;17.30;99.90;;;;;;4898044;29;20295;-70
2023/10/11 06:12:22;;;;;;;43.03;15.68;;;17.40;99.90;;;;;;4895294;29;20248;-68
2023/10/11 06:14:52;;;;;;;42.20;15.98;;;17.40;99.90;;;;;;4896011;29;20542;-73
2023/10/11 06:17:23;;;;;;;42.85;16.13;;;17.40;99.90;;;;;;4894789;29;20201;-70
2023/10/11 06:19:54;;;;;;;45.42;16.05;;;17.40;99.90;;;;;;4888763;29;20193;-70
2023/10/11 06:22:21;;;;;;;41.45;15.93;;;17.50;99.90;;;;;;4897711;29;20617;-78
2023/10/11 06:24:48;;;;;;;44.47;15.65;;;17.50;99.90;;;;;;4898006;29;20672;-69
2023/10/11 06:29:51;;;;;;;46.55;15.10;;;17.50;99.90;;;;;;4898262;29;20230;-72
2023/10/11 06:32:19;;;;;;;44.17;16.15;;;17.60;99.90;;;;;;4896852;29;20200;-70
2023/10/11 06:34:47;;;;;;;39.85;15.77;;;17.60;99.90;;;;;;4911359;29;20634;-70
2023/10/11 06:37:24;;;;;;;44.60;15.63;;;17.60;99.90;;;;;;4897272;29;20571;-70
2023/10/11 06:42:31;;;;;;;38.90;15.27;;;17.60;99.90;;;;;;4888588;29;20224;-70
2023/10/11 06:44:59;;;;;;;45.35;15.57;;;17.70;99.90;;;;;;4894498;29;20244;-70
2023/10/11 06:47:27;;;;;;;44.22;14.65;;;17.70;99.90;;;;;;4896660;29;20232;-72
2023/10/11 06:49:56;;;;;;;41.72;14.82;;;17.70;99.90;;;;;;4893159;29;20272;-69
2023/10/11 06:52:30;;;;;;;43.65;15.05;;;17.70;99.90;;;;;;4897520;29;20201;-70
2023/10/11 06:57:45;;;;;;;33.78;13.73;;;17.70;99.90;;;;;;4896981;29;20188;-71
2023/10/11 07:06:11;;;;;;;37.55;13.77;;;17.80;99.90;;;;;;4895992;29;20185;-71
2023/10/11 07:08:48;;;;;;;43.58;13.75;;;17.90;99.90;;;;;;4893978;29;20859;-71
2023/10/11 07:11:40;;;;;;;34.70;13.88;;;17.90;99.90;;;;;;4897092;29;20327;-70
2023/10/11 07:14:14;;;;;;;44.33;12.98;;;17.90;99.90;;;;;;4892365;29;20200;-71
2023/10/11 07:16:46;;;;;;;34.05;12.32;;;17.90;99.90;;;;;;4895720;29;20192;-69
2023/10/11 07:19:15;;;;;;;32.05;12.20;;;18.00;99.90;;;;;;4897467;29;20264;-70
2023/10/11 07:24:31;;;;;;;31.45;12.73;;;18.10;99.90;;;;;;4896261;29;20200;-75
2023/10/11 07:26:59;;;;;;;30.77;11.68;;;18.10;99.90;;;;;;4894697;29;20192;-75
2023/10/11 07:29:26;;;;;;;36.72;12.70;;;18.20;99.90;;;;;;4891521;29;20227;-69
2023/10/11 07:31:53;;;;;;;30.88;12.63;;;18.20;99.90;;;;;;4897022;29;20228;-70
2023/10/11 07:34:20;;;;;;;30.42;11.88;;;18.20;99.90;;;;;;4896736;29;20196;-70
2023/10/11 07:36:50;;;;;;;35.60;11.88;;;18.20;99.90;;;;;;4896960;29;20216;-70
2023/10/11 07:42:18;;;;;;;34.58;12.73;;;18.30;99.90;;;;;;4896111;29;20187;-70
2023/10/11 07:44:50;;;;;;;31.48;12.40;;;18.30;99.90;;;;;;4895397;29;20220;-72
2023/10/11 07:47:16;;;;;;;38.50;13.25;;;18.30;99.90;;;;;;4894753;29;20189;-71
2023/10/11 07:49:43;;;;;;;35.33;12.20;;;18.40;99.90;;;;;;4889889;29;20216;-71
2023/10/11 07:52:19;;;;;;;33.10;13.00;;;18.50;99.90;;;;;;4896622;29;20246;-72
2023/10/11 07:54:45;;;;;;;31.95;13.25;;;18.50;99.90;;;;;;4884460;29;20283;-70
2023/10/11 07:57:14;;;;;;;36.88;13.13;;;18.50;99.90;;;;;;4910875;29;20406;-71
2023/10/11 07:59:41;;;;;;;36.00;12.68;;;18.60;99.90;;;;;;4895787;29;20267;-71
2023/10/11 08:02:08;;;;;;;33.13;12.93;;;18.60;99.90;;;;;;4896179;29;20192;-70
2023/10/11 08:04:44;;;;;;;30.50;13.60;;;18.70;99.90;;;;;;4894165;29;20692;-71
2023/10/11 08:07:16;;;;;;;42.97;13.90;;;18.70;99.90;;;;;;4894688;29;20559;-70
2023/10/11 08:09:45;;;;;;;35.85;12.80;;;18.70;99.90;;;;;;4894897;29;20275;-71
2023/10/11 08:12:19;;;;;;;36.70;13.32;;;18.70;99.90;;;;;;4889475;29;20196;-71
2023/10/11 08:14:45;;;;;;;29.67;12.32;;;18.70;99.90;;;;;;4893484;29;20192;-70
2023/10/11 08:17:16;;;;;;;28.83;12.07;;;18.60;99.90;;;;;;4892109;29;20192;-71
2023/10/11 08:19:46;;;;;;;31.98;12.73;;;18.70;99.90;;;;;;4894144;29;20305;-70
2023/10/11 08:22:16;;;;;;;35.70;11.80;;;18.60;99.90;;;;;;4894952;29;20291;-70
2023/10/11 08:24:49;;;;;;;25.27;11.40;;;18.60;99.90;;;;;;4895803;29;20369;-71
2023/10/11 08:27:29;;;;;;;29.48;11.15;;;18.60;99.90;;;;;;4891558;29;20187;-72
2023/10/11 08:30:17;;;;;;;28.40;11.75;;;18.70;99.90;;;;;;4893498;29;20334;-73
2023/10/11 08:32:45;;;;;;;27.52;11.75;;;18.70;99.90;;;;;;4890312;29;20204;-70
2023/10/11 08:35:16;;;;;;;24.95;10.95;;;18.70;99.90;;;;;;4888203;29;20193;-71
2023/10/11 08:37:45;;;;;;;28.65;10.70;;;18.70;99.90;;;;;;4896428;29;20203;-69
2023/10/11 08:40:22;;;;;;;24.30;10.50;;;18.70;99.90;;;;;;4895550;29;20188;-71
2023/10/11 08:42:52;;;;;;;26.05;10.75;;;18.80;99.90;;;;;;4895651;29;20300;-70
2023/10/11 08:45:44;;;;;;;26.25;10.35;;;18.70;99.90;;;;;;4887519;29;20272;-69
2023/10/11 08:48:11;;;;;;;33.97;11.52;;;18.70;99.90;;;;;;4893540;29;20193;-71
2023/10/11 08:50:38;;;;;;;27.33;11.63;;;18.70;99.90;;;;;;4896457;29;20235;-72
2023/10/11 08:53:08;;;;;;;28.17;11.80;;;18.70;99.90;;;;;;4898423;29;20667;-69
2023/10/11 08:55:36;;;;;;;23.88;11.10;;;18.70;99.90;;;;;;4898676;29;20685;-69
2023/10/11 08:58:05;;;;;;;30.98;12.10;;;18.70;99.90;;;;;;4890933;29;20274;-72
2023/10/11 09:00:33;;;;;;;34.15;13.05;;;18.70;99.90;;;;;;4897345;29;20275;-69
2023/10/11 09:03:19;;;;;;;24.92;11.73;;;18.60;99.90;;;;;;4888091;29;20245;-71
2023/10/11 09:05:47;;;;;;;29.02;11.35;;;18.50;99.90;;;;;;4898681;29;20203;-72
2023/10/11 09:08:39;;;;;;;31.02;11.27;;;18.50;99.90;;;;;;4896658;29;20199;-71
2023/10/11 09:11:12;;;;;;;23.27;10.63;;;18.40;99.90;;;;;;4894375;29;20241;-72
2023/10/11 09:13:39;;;;;;;20.95;8.98;;;18.40;99.90;;;;;;4896178;29;20207;-71
2023/10/11 09:16:12;;;;;;;17.40;9.25;;;18.40;99.90;;;;;;4881758;29;20634;-71
2023/10/11 09:18:58;;;;;;;18.98;9.38;;;18.40;99.90;;;;;;4897680;29;20197;-70
2023/10/11 09:21:29;;;;;;;18.20;8.48;;;18.40;99.90;;;;;;4894362;29;20267;-69
2023/10/11 09:24:00;;;;;;;23.65;9.25;;;18.50;99.90;;;;;;4897139;29;20280;-70
2023/10/11 09:26:34;;;;;;;13.43;8.13;;;18.50;99.90;;;;;;4897122;29;20201;-70
2023/10/11 09:29:03;;;;;;;20.33;8.50;;;18.60;99.90;;;;;;4898957;29;20343;-73
2023/10/11 09:31:31;;;;;;;14.48;7.82;;;18.70;99.90;;;;;;4896850;29;20271;-71
2023/10/11 09:34:02;;;;;;;14.48;8.32;;;18.70;99.90;;;;;;4897386;29;20268;-73
2023/10/11 09:36:29;;;;;;;16.05;7.50;;;18.80;99.90;;;;;;4895460;29;20192;-72
2023/10/11 09:38:56;;;;;;;18.85;9.15;;;18.80;99.90;;;;;;4898257;29;20284;-71
2023/10/11 09:41:38;;;;;;;13.95;8.00;;;18.90;99.90;;;;;;4898587;29;20574;-71
2023/10/11 09:44:12;;;;;;;19.27;8.35;;;18.90;99.90;;;;;;4897168;29;20189;-69
2023/10/11 09:46:43;;;;;;;17.30;7.70;;;19.00;99.90;;;;;;4892991;29;20751;-71
2023/10/11 09:49:13;;;;;;;17.98;8.93;;;19.00;99.90;;;;;;4897613;29;20307;-71
2023/10/11 09:51:46;;;;;;;16.58;7.85;;;19.10;99.90;;;;;;4896769;29;20252;-71
2023/10/11 09:54:13;;;;;;;19.55;8.18;;;19.10;99.90;;;;;;4897030;29;20220;-70
2023/10/11 09:56:56;;;;;;;18.00;7.90;;;19.10;99.90;;;;;;4907579;29;20200;-69
2023/10/11 09:59:39;;;;;;;17.73;8.00;;;19.10;99.90;;;;;;4893239;29;20184;-72
2023/10/11 10:02:28;;;;;;;17.90;9.27;;;19.10;99.90;;;;;;4891246;29;20692;-72
2023/10/11 10:04:55;;;;;;;16.30;8.10;;;19.00;99.90;;;;;;4894685;29;20192;-71
2023/10/11 10:07:26;;;;;;;17.25;8.27;;;19.10;99.90;;;;;;4893794;29;20212;-71
2023/10/11 10:10:02;;;;;;;14.80;6.82;;;19.10;99.90;;;;;;4896549;29;20231;-70
2023/10/11 10:12:43;;;;;;;15.60;7.72;;;19.20;99.90;;;;;;4909756;29;20224;-71
2023/10/11 10:15:20;;;;;;;20.33;7.88;;;19.30;99.90;;;;;;4895753;29;20185;-71
2023/10/11 10:18:01;;;;;;;17.90;7.75;;;19.40;99.90;;;;;;4891989;29;20228;-71
2023/10/11 10:20:41;;;;;;;21.77;7.45;;;19.40;99.90;;;;;;4885635;29;20355;-69
2023/10/11 10:23:16;;;;;;;20.67;7.43;;;19.50;99.90;;;;;;4893741;29;20184;-70
2023/10/11 10:25:48;;;;;;;18.42;7.40;;;19.50;99.90;;;;;;4892838;29;20259;-70
2023/10/11 10:28:32;;;;;;;16.20;7.32;;;19.60;99.90;;;;;;4890109;29;20181;-71
2023/10/11 10:31:18;;;;;;;18.98;7.90;;;19.60;99.90;;;;;;4897202;29;20279;-70
2023/10/11 10:33:55;;;;;;;19.90;7.60;;;19.70;99.90;;;;;;4891460;29;20332;-72
2023/10/11 10:36:21;;;;;;;16.77;6.93;;;19.70;99.90;;;;;;4894521;29;20184;-73
2023/10/11 10:41:36;;;;;;;15.25;7.03;;;19.80;99.90;;;;;;4893923;29;20204;-70
2023/10/11 10:44:18;;;;;;;18.15;6.93;;;19.80;99.90;;;;;;4891854;29;20207;-71
2023/10/11 10:46:49;;;;;;;14.80;6.40;;;19.90;99.90;;;;;;4896717;29;20185;-69
2023/10/11 10:49:17;;;;;;;11.77;6.10;;;20.00;99.90;;;;;;4896242;29;20328;-70
2023/10/11 10:51:47;;;;;;;11.70;5.72;;;20.20;99.90;;;;;;4897370;29;20255;-70
2023/10/11 10:54:21;;;;;;;13.18;5.35;;;20.20;99.90;;;;;;4897318;29;20611;-69
2023/10/11 10:56:52;;;;;;;12.13;6.03;;;20.40;99.90;;;;;;4895486;29;20181;-70
2023/10/11 10:59:20;;;;;;;14.73;5.70;;;20.50;99.90;;;;;;4897727;29;20189;-70
2023/10/11 11:01:48;;;;;;;18.98;6.25;;;20.50;99.90;;;;;;4895787;29;20204;-69
2023/10/11 11:04:20;;;;;;;15.60;5.80;;;20.50;99.90;;;;;;4895604;29;20184;-72
2023/10/11 11:06:50;;;;;;;17.38;5.75;;;20.50;99.90;;;;;;4894821;29;20708;-70
2023/10/11 11:09:19;;;;;;;14.65;5.95;;;20.50;99.90;;;;;;4897207;29;20577;-69
2023/10/11 11:11:47;;;;;;;13.98;5.35;;;20.50;99.90;;;;;;4893542;29;20185;-69
2023/10/11 11:14:15;;;;;;;13.60;5.43;;;20.60;99.90;;;;;;4896789;29;20215;-70
2023/10/11 11:16:54;;;;;;;10.60;5.28;;;20.60;99.90;;;;;;4895466;29;21128;-68
2023/10/11 11:19:25;;;;;;;14.50;5.60;;;20.60;99.90;;;;;;4897459;29;20197;-69
2023/10/11 11:22:19;;;;;;;15.95;5.57;;;20.60;99.90;;;;;;4896963;29;20267;-69
2023/10/11 11:24:52;;;;;;;9.30;4.78;;;20.60;99.90;;;;;;4906963;29;20614;-71
2023/10/11 11:27:25;;;;;;;11.23;4.40;;;20.60;99.90;;;;;;4894384;29;20252;-69
2023/10/11 11:30:00;;;;;;;14.02;4.72;;;20.60;99.90;;;;;;4896979;29;20220;-69
2023/10/11 11:32:37;;;;;;;11.98;4.55;;;20.60;99.90;;;;;;4895571;29;20196;-71
2023/10/11 11:38:06;;;;;;;13.90;4.60;;;20.50;99.90;;;;;;4909805;29;20192;-70
2023/10/11 11:40:38;;;;;;;9.18;4.55;;;20.50;99.90;;;;;;4896086;29;20684;-68
2023/10/11 11:43:04;;;;;;;18.13;4.47;;;20.50;99.90;;;;;;4894916;29;20176;-70
2023/10/11 11:45:35;;;;;;;15.05;4.65;;;20.50;99.90;;;;;;4896072;29;20231;-70
2023/10/11 11:48:05;;;;;;;11.90;4.78;;;20.50;99.90;;;;;;4888881;29;20199;-70
2023/10/11 11:50:36;;;;;;;11.63;4.25;;;20.50;99.90;;;;;;4889179;29;20223;-69
2023/10/11 11:53:04;;;;;;;10.55;4.15;;;20.50;99.90;;;;;;4893038;29;20641;-71
2023/10/11 11:55:32;;;;;;;13.55;5.40;;;20.60;99.90;;;;;;4893892;29;20192;-69
2023/10/11 11:57:58;;;;;;;10.10;4.82;;;20.60;99.90;;;;;;4895904;29;20188;-69
2023/10/11 12:03:04;;;;;;;9.18;4.40;;;20.60;99.90;;;;;;4896302;29;20211;-69
2023/10/11 12:05:40;;;;;;;8.93;4.22;;;20.70;99.90;;;;;;4893930;29;20223;-70
2023/10/11 12:08:20;;;;;;;11.18;3.90;;;20.70;99.90;;;;;;4893018;29;20217;-69
2023/10/11 12:10:49;;;;;;;9.95;3.95;;;20.70;99.90;;;;;;4884271;29;20677;-69
2023/10/11 12:13:27;;;;;;;11.73;3.85;;;20.70;99.90;;;;;;4895979;29;20185;-70
2023/10/11 12:15:54;;;;;;;12.07;3.60;;;20.80;99.90;;;;;;4895433;29;20263;-69
2023/10/11 12:18:33;;;;;;;10.25;4.00;;;20.90;99.90;;;;;;4894769;29;20574;-70
2023/10/11 12:21:00;;;;;;;9.70;3.92;;;21.00;99.90;;;;;;4895700;29;20232;-70
2023/10/11 12:23:26;;;;;;;8.60;3.65;;;21.10;99.90;;;;;;4895758;29;20538;-70
2023/10/11 12:25:54;;;;;;;9.48;3.90;;;21.10;99.90;;;;;;4894352;29;20293;-69
2023/10/11 12:28:22;;;;;;;6.68;3.53;;;21.10;99.90;;;;;;4893290;29;20199;-71
2023/10/11 12:30:48;;;;;;;14.00;4.40;;;21.00;99.90;;;;;;4895751;29;20223;-69
2023/10/11 12:33:14;;;;;;;9.45;4.03;;;20.90;99.90;;;;;;4891149;29;20276;-69
2023/10/11 12:35:40;;;;;;;10.93;4.15;;;20.90;99.90;;;;;;4893977;29;20232;-69
2023/10/11 12:38:12;;;;;;;9.30;4.25;;;20.80;99.90;;;;;;4894357;29;20188;-69
2023/10/11 12:40:44;;;;;;;12.63;4.00;;;20.70;99.90;;;;;;4893980;29;20192;-71
2023/10/11 12:43:11;;;;;;;11.25;4.45;;;20.60;99.90;;;;;;4904883;29;20189;-69
2023/10/11 12:45:42;;;;;;;11.27;4.05;;;20.50;99.90;;;;;;4889222;29;20279;-72
2023/10/11 12:48:10;;;;;;;12.43;4.18;;;20.50;99.90;;;;;;4892405;29;20191;-70
2023/10/11 12:50:39;;;;;;;11.93;4.63;;;20.50;99.90;;;;;;4895009;29;20324;-69
2023/10/11 12:53:11;;;;;;;10.90;4.05;;;20.40;99.90;;;;;;4891033;29;20196;-69
2023/10/11 12:55:42;;;;;;;12.20;4.53;;;20.50;99.90;;;;;;4889225;29;20225;-71
2023/10/11 12:58:12;;;;;;;12.05;3.65;;;20.50;99.90;;;;;;4895004;29;20192;-70
2023/10/11 13:00:51;;;;;;;8.77;3.78;;;20.50;99.90;;;;;;4893553;29;20197;-70
2023/10/11 13:03:29;;;;;;;7.90;3.53;;;20.50;99.90;;;;;;4894851;29;20188;-73
2023/10/11 13:05:56;;;;;;;8.73;3.22;;;20.50;99.90;;;;;;4895153;29;20177;-70
2023/10/11 13:08:26;;;;;;;10.50;3.45;;;20.50;99.90;;;;;;4894595;29;20215;-70
2023/10/11 13:10:53;;;;;;;13.80;3.35;;;20.50;99.90;;;;;;4894062;29;20236;-70
2023/10/11 13:13:23;;;;;;;10.25;3.72;;;20.50;99.90;;;;;;4894397;29;20537;-69
2023/10/11 13:16:00;;;;;;;10.88;3.97;;;20.50;99.90;;;;;;4892748;29;20193;-71
2023/10/11 13:18:27;;;;;;;9.18;3.90;;;20.50;99.90;;;;;;4894785;29;20189;-70
2023/10/11 13:20:56;;;;;;;12.57;5.03;;;20.50;99.90;;;;;;4893735;29;20647;-70
2023/10/11 13:23:28;;;;;;;11.88;4.20;;;20.40;99.90;;;;;;4894285;29;20195;-69
2023/10/11 13:26:09;;;;;;;12.40;4.18;;;20.30;99.90;;;;;;4894371;29;20196;-70
2023/10/11 13:28:37;;;;;;;12.30;4.15;;;20.30;99.90;;;;;;4890258;29;20192;-71
2023/10/11 13:31:04;;;;;;;8.25;3.97;;;20.20;99.90;;;;;;4895272;29;20225;-70
2023/10/11 13:33:31;;;;;;;12.57;3.90;;;20.20;99.90;;;;;;4894785;29;20275;-72
2023/10/11 13:36:00;;;;;;;19.98;4.70;;;20.20;99.90;;;;;;4892499;29;20188;-71
2023/10/11 13:38:30;;;;;;;15.50;4.50;;;20.20;99.90;;;;;;4898357;29;20193;-69
2023/10/11 13:40:58;;;;;;;11.93;4.13;;;20.10;99.90;;;;;;4897878;29;20284;-70
2023/10/11 13:43:25;;;;;;;11.23;4.50;;;20.10;99.90;;;;;;4912834;29;20189;-71
2023/10/11 13:46:01;;;;;;;11.05;4.10;;;20.10;99.90;;;;;;4896745;29;20199;-69
2023/10/11 13:48:36;;;;;;;14.75;4.40;;;20.00;99.90;;;;;;4897997;29;20202;-70
2023/10/11 13:51:05;;;;;;;13.55;4.60;;;19.90;99.90;;;;;;4897999;29;20184;-71
2023/10/11 13:53:31;;;;;;;13.43;4.78;;;19.90;99.90;;;;;;4893883;29;20633;-72